Time;durP1;ratioP1;P1;durP2;ratioP2;P2;SDS_P1;SDS_P2;PMS_P1;PMS_P2;Temp;Humidity;BMP_temperature;BMP_pressure;BME280_temperature;BME280_humidity;BME280_pressure;Samples;Min_cycle;Max_cycle;Signal;HPM_P1;HPM_P2
2022/09/13 00:00:04;;;;;;;11.57;6.57;;;;;;;19.23;83.95;100884.91;5073726;28;20059;-54
2022/09/13 00:02:32;;;;;;;10.93;7.20;;;;;;;19.22;84.05;100879.72;5059153;28;20052;-55
2022/09/13 00:05:00;;;;;;;10.13;7.00;;;;;;;19.23;83.66;100886.88;5069716;28;20036;-55
2022/09/13 00:07:27;;;;;;;12.98;6.63;;;;;;;19.21;83.70;100884.44;5067442;28;20037;-55
2022/09/13 00:09:55;;;;;;;9.63;6.85;;;;;;;19.22;83.30;100888.00;5062633;28;20490;-54
2022/09/13 00:12:23;;;;;;;8.88;7.00;;;;;;;19.22;83.31;100888.00;5072193;28;20043;-58
2022/09/13 00:14:51;;;;;;;11.70;6.43;;;;;;;19.22;82.91;100886.06;5050524;28;20055;-55
2022/09/13 00:17:18;;;;;;;8.93;6.65;;;;;;;19.23;82.85;100881.34;5066742;28;20032;-56
2022/09/13 00:19:46;;;;;;;14.38;6.82;;;;;;;19.24;82.54;100880.19;5072335;28;20051;-56
2022/09/13 00:22:14;;;;;;;9.63;6.72;;;;;;;19.24;82.26;100882.97;5071913;28;20502;-57
2022/09/13 00:24:42;;;;;;;11.23;6.90;;;;;;;19.24;82.07;100869.97;5063800;28;20045;-56
2022/09/13 00:27:11;;;;;;;12.65;6.93;;;;;;;19.26;81.85;100875.16;5071367;28;20048;-54
2022/09/13 00:29:39;;;;;;;14.52;7.75;;;;;;;19.24;81.90;100860.88;5072021;28;20047;-55
2022/09/13 00:32:07;;;;;;;9.10;6.57;;;;;;;19.23;81.74;100864.78;5072109;28;20041;-59
2022/09/13 00:34:35;;;;;;;10.13;6.47;;;;;;;19.23;81.62;100860.06;5063912;28;20131;-56
2022/09/13 00:37:03;;;;;;;11.07;6.60;;;;;;;19.24;81.69;100858.09;5064569;28;20041;-59
2022/09/13 00:39:31;;;;;;;9.10;6.35;;;;;;;19.24;81.49;100863.63;5067313;28;20044;-55
2022/09/13 00:41:59;;;;;;;10.77;5.97;;;;;;;19.23;81.89;100854.53;5057962;28;20037;-56
2022/09/13 00:44:49;;;;;;;10.25;6.50;;;;;;;19.23;81.61;100851.75;5076172;28;20047;-57
2022/09/13 00:47:25;;;;;;;11.50;6.53;;;;;;;19.24;81.49;100855.34;5067663;28;20056;-58
2022/09/13 00:50:17;;;;;;;10.52;7.07;;;;;;;19.22;81.55;100844.63;5068801;28;20045;-59
2022/09/13 00:52:48;;;;;;;9.95;6.30;;;;;;;19.23;81.38;100842.69;5065488;28;20037;-59
2022/09/13 00:55:20;;;;;;;10.30;6.25;;;;;;;19.23;81.67;100843.47;5075339;28;20379;-55
2022/09/13 00:57:49;;;;;;;11.13;6.13;;;;;;;19.24;81.58;100838.75;5069387;28;20047;-54
2022/09/13 01:00:18;;;;;;;10.82;6.07;;;;;;;19.23;81.81;100835.19;5069286;28;20048;-56
2022/09/13 01:02:51;;;;;;;9.73;6.70;;;;;;;19.22;81.78;100835.50;5074512;28;20049;-55
2022/09/13 01:05:21;;;;;;;9.57;6.65;;;;;;;19.18;82.09;100843.66;5053878;28;20064;-55
2022/09/13 01:07:50;;;;;;;9.07;6.15;;;;;;;19.19;82.07;100833.41;5057961;28;20060;-57
2022/09/13 01:10:18;;;;;;;10.98;6.72;;;;;;;19.17;82.20;100833.75;5056346;28;20052;-58
2022/09/13 01:13:01;;;;;;;11.70;7.00;;;;;;;19.15;82.71;100839.59;5061544;28;20398;-56
2022/09/13 01:15:29;;;;;;;11.88;5.95;;;;;;;19.14;82.69;100840.72;5075156;28;20525;-58
2022/09/13 01:17:57;;;;;;;10.45;5.90;;;;;;;19.13;82.80;100833.56;5056728;28;20501;-58
2022/09/13 01:20:32;;;;;;;9.43;6.15;;;;;;;19.13;82.92;100830.00;5073862;28;20079;-57
2022/09/13 01:23:24;;;;;;;10.77;5.70;;;;;;;19.12;83.04;100837.50;5064882;28;20040;-57
2022/09/13 01:26:10;;;;;;;15.18;7.00;;;;;;;19.11;83.10;100841.38;5065301;28;20036;-56
2022/09/13 01:29:11;;;;;;;9.88;6.15;;;;;;;19.11;83.34;100846.09;5065712;28;20029;-56
2022/09/13 01:31:55;;;;;;;9.38;6.45;;;;;;;19.10;83.44;100837.00;5060457;28;20040;-60
2022/09/13 01:34:28;;;;;;;11.73;6.60;;;;;;;19.10;83.48;100842.53;5073198;28;20413;-59
2022/09/13 01:37:31;;;;;;;8.68;5.68;;;;;;;19.11;83.32;100840.56;5059864;28;20045;-55
2022/09/13 01:40:22;;;;;;;9.40;6.03;;;;;;;19.11;83.23;100840.56;5073784;28;20394;-54
2022/09/13 01:43:28;;;;;;;18.60;6.45;;;;;;;19.11;83.16;100841.38;5074406;28;20453;-56
2022/09/13 01:46:01;;;;;;;;;;;;;;;19.12;82.92;100837.50;5064547;28;20051;-55
2022/09/13 01:48:32;;;;;;;8.73;5.53;;;;;;;19.12;83.47;100839.41;5057334;28;19927;-54
2022/09/13 01:51:05;;;;;;;9.13;6.35;;;;;;;19.11;83.43;100833.09;5074165;28;20049;-58
2022/09/13 01:53:49;;;;;;;11.27;6.15;;;;;;;19.10;83.40;100825.94;5073117;28;20040;-59
2022/09/13 01:56:26;;;;;;;16.52;7.40;;;;;;;19.08;83.51;100828.22;5066759;28;20040;-55
2022/09/13 01:59:01;;;;;;;9.52;6.30;;;;;;;19.08;83.50;100833.75;5073019;28;20037;-58
2022/09/13 02:01:37;;;;;;;8.95;5.57;;;;;;;19.08;83.63;100830.19;5068134;28;20044;-57
2022/09/13 02:04:09;;;;;;;10.57;5.97;;;;;;;19.08;83.73;100828.22;5072673;28;20511;-56
2022/09/13 02:06:41;;;;;;;10.35;6.38;;;;;;;19.08;83.71;100824.66;5060321;28;20035;-56
2022/09/13 02:09:13;;;;;;;9.38;5.90;;;;;;;19.07;83.67;100823.84;5068805;28;20045;-57
2022/09/13 02:11:48;;;;;;;8.95;6.00;;;;;;;19.06;83.74;100824.97;5072087;28;20045;-56
2022/09/13 02:14:21;;;;;;;9.68;5.80;;;;;;;19.06;83.78;100822.19;5071830;28;20055;-57
2022/09/13 02:16:55;;;;;;;9.98;6.80;;;;;;;19.06;83.78;100827.72;5053059;28;20041;-56
2022/09/13 02:19:59;;;;;;;11.75;6.07;;;;;;;19.06;83.89;100827.72;5063672;28;20028;-54
2022/09/13 02:22:40;;;;;;;8.23;5.47;;;;;;;19.05;83.66;100823.34;5064250;28;20045;-58
2022/09/13 02:25:13;;;;;;;12.10;5.88;;;;;;;19.05;83.78;100820.59;5066297;28;20044;-58
2022/09/13 02:27:45;;;;;;;8.57;5.85;;;;;;;19.04;83.90;100818.94;5069964;28;20097;-56
2022/09/13 02:30:14;;;;;;;8.38;5.90;;;;;;;19.04;83.97;100821.72;5072318;28;20116;-56
2022/09/13 02:32:54;;;;;;;8.15;5.80;;;;;;;19.05;83.91;100820.59;5072138;28;20086;-56
2022/09/13 02:35:23;;;;;;;8.68;5.70;;;;;;;19.06;84.03;100829.69;5037877;28;20052;-53
2022/09/13 02:38:06;;;;;;;8.23;5.72;;;;;;;19.06;83.80;100827.72;5067718;28;20464;-57
2022/09/13 02:40:41;;;;;;;10.25;5.93;;;;;;;19.07;83.72;100823.00;5070578;28;20513;-58
2022/09/13 02:43:30;;;;;;;7.97;5.78;;;;;;;19.07;83.47;100821.09;5072764;28;20055;-54
2022/09/13 02:46:10;;;;;;;8.50;5.63;;;;;;;19.06;83.49;100821.41;5066442;28;20101;-58
2022/09/13 02:49:15;;;;;;;8.32;5.82;;;;;;;19.05;83.61;100826.13;5060833;28;20045;-58
2022/09/13 02:51:58;;;;;;;8.63;5.57;;;;;;;19.03;83.56;100825.63;5071269;28;20037;-59
2022/09/13 02:55:02;;;;;;;9.18;5.72;;;;;;;19.03;83.64;100833.09;5057835;28;20406;-57
2022/09/13 02:57:39;;;;;;;10.10;5.57;;;;;;;19.01;83.98;100836.19;5038317;28;20106;-57
2022/09/13 03:00:08;;;;;;;12.52;6.00;;;;;;;19.01;84.23;100840.91;5068276;28;20033;-56
2022/09/13 03:02:38;;;;;;;10.15;6.03;;;;;;;19.00;84.14;100840.09;5059852;28;20406;-59
2022/09/13 03:05:06;;;;;;;9.25;5.82;;;;;;;19.01;84.46;100840.91;5072581;28;20131;-60
2022/09/13 03:07:33;;;;;;;9.63;5.70;;;;;;;19.01;84.87;100841.69;5071820;28;20070;-57
2022/09/13 03:10:05;;;;;;;12.85;5.72;;;;;;;19.02;85.01;100846.06;5071775;28;20048;-58
2022/09/13 03:13:02;;;;;;;9.68;5.65;;;;;;;19.02;85.21;100848.84;5054807;28;20414;-56
2022/09/13 03:15:42;;;;;;;9.23;5.47;;;;;;;19.02;85.64;100843.31;5075309;28;20162;-56
2022/09/13 03:18:20;;;;;;;9.68;5.70;;;;;;;19.02;85.73;100839.75;5069093;28;20036;-56
2022/09/13 03:21:16;;;;;;;7.95;5.70;;;;;;;19.03;85.97;100844.16;5061724;28;20556;-60
2022/09/13 03:24:05;;;;;;;9.27;5.88;;;;;;;18.99;86.66;100843.16;5070096;28;20086;-56
2022/09/13 03:26:52;;;;;;;9.02;5.85;;;;;;;18.97;87.13;100835.19;5072991;28;20045;-56
2022/09/13 03:29:30;;;;;;;7.63;5.47;;;;;;;18.96;87.40;100836.34;5068988;28;20498;-58
2022/09/13 03:32:23;;;;;;;11.05;5.93;;;;;;;18.95;87.11;100831.94;5070736;28;20128;-57
2022/09/13 03:35:03;;;;;;;9.85;5.88;;;;;;;18.95;87.29;100826.41;5035436;28;20045;-58
2022/09/13 03:37:55;;;;;;;8.35;5.78;;;;;;;18.94;87.50;100835.84;5060653;28;20442;-56
2022/09/13 03:40:48;;;;;;;10.30;5.80;;;;;;;18.91;87.60;100836.50;5067411;28;20052;-57
2022/09/13 03:43:45;;;;;;;8.13;5.40;;;;;;;18.91;87.85;100828.22;5071799;28;20398;-57
2022/09/13 03:46:28;;;;;;;7.95;5.35;;;;;;;18.91;87.67;100819.94;5072608;28;20044;-59
2022/09/13 03:48:56;;;;;;;8.05;5.45;;;;;;;18.92;87.33;100816.03;5049003;28;20520;-58
2022/09/13 03:51:24;;;;;;;9.52;6.20;;;;;;;18.90;87.68;100810.81;5051295;28;20048;-57
2022/09/13 03:54:00;;;;;;;10.77;6.10;;;;;;;18.88;88.19;100820.56;5036135;28;20045;-57
2022/09/13 03:56:28;;;;;;;;;;;;;;;18.87;87.52;100824.47;5063516;28;20086;-57
2022/09/13 03:58:55;;;;;;;9.82;5.20;;;;;;;18.86;87.77;100815.38;5071386;28;19920;-55
2022/09/13 04:01:24;;;;;;;7.95;5.57;;;;;;;18.86;88.24;100822.88;5064428;28;20037;-58
2022/09/13 04:03:52;;;;;;;9.20;5.75;;;;;;;18.83;88.48;100818.81;5071886;28;20048;-58
2022/09/13 04:06:23;;;;;;;10.25;5.80;;;;;;;18.82;88.66;100825.44;5072080;28;20040;-59
2022/09/13 04:08:51;;;;;;;9.68;6.18;;;;;;;18.82;88.77;100824.66;5071818;28;20052;-57
2022/09/13 04:11:20;;;;;;;9.07;5.57;;;;;;;18.82;88.90;100835.69;5071713;28;20040;-60
2022/09/13 04:13:48;;;;;;;11.25;6.05;;;;;;;18.82;89.08;100838.44;5072698;28;20506;-58
2022/09/13 04:16:16;;;;;;;8.43;6.13;;;;;;;18.79;89.21;100842.66;5061450;28;20040;-55
2022/09/13 04:18:43;;;;;;;10.57;6.57;;;;;;;18.77;89.39;100852.41;5075059;28;20048;-60
2022/09/13 04:21:11;;;;;;;10.93;7.40;;;;;;;18.73;89.34;100853.00;5074582;28;20044;-60
2022/09/13 04:23:39;;;;;;;11.13;6.97;;;;;;;18.70;89.67;100847.31;5076222;28;20109;-56
2022/09/13 04:26:06;;;;;;;11.70;6.78;;;;;;;18.68;89.81;100849.59;5072860;28;20036;-60
2022/09/13 04:28:34;;;;;;;14.43;7.45;;;;;;;18.68;90.11;100858.69;5066197;28;20067;-61
2022/09/13 04:31:02;;;;;;;10.18;6.70;;;;;;;18.67;90.52;100865.34;5072840;28;20052;-60
2022/09/13 04:33:30;;;;;;;10.85;6.45;;;;;;;18.67;90.58;100857.06;5075870;28;20047;-59
2022/09/13 04:35:58;;;;;;;11.57;6.80;;;;;;;18.68;90.80;100855.91;5076105;28;20045;-59
2022/09/13 04:38:26;;;;;;;11.45;6.95;;;;;;;18.67;90.98;100859.81;5072877;28;20058;-57
2022/09/13 04:40:55;;;;;;;12.75;7.18;;;;;;;18.67;90.92;100859.03;5070168;28;20097;-58
2022/09/13 04:43:24;;;;;;;13.40;7.00;;;;;;;18.67;90.73;100859.81;5075527;28;20041;-58
2022/09/13 04:45:51;;;;;;;12.52;8.23;;;;;;;18.66;90.39;100860.94;5075465;28;20049;-57
2022/09/13 04:48:19;;;;;;;14.52;8.00;;;;;;;18.65;90.11;100862.09;5073404;28;20047;-55
2022/09/13 04:50:47;;;;;;;11.00;7.13;;;;;;;18.65;89.91;100861.28;5065249;28;20513;-60
2022/09/13 04:53:17;;;;;;;12.15;7.18;;;;;;;18.64;90.18;100862.41;5065755;28;20045;-57
2022/09/13 04:55:45;;;;;;;10.65;7.35;;;;;;;18.63;89.99;100861.59;5073350;28;20045;-60
2022/09/13 04:58:13;;;;;;;11.82;8.05;;;;;;;18.63;89.95;100863.53;5076206;28;20052;-58
2022/09/13 05:00:40;;;;;;;12.40;7.43;;;;;;;18.63;89.65;100858.03;5066301;28;20044;-59
2022/09/13 05:03:08;;;;;;;12.07;7.60;;;;;;;18.62;89.61;100859.97;5072677;28;20628;-60
2022/09/13 05:05:36;;;;;;;13.20;8.27;;;;;;;18.63;89.79;100860.78;5072529;28;20049;-58
2022/09/13 05:08:03;;;;;;;12.77;7.85;;;;;;;18.63;89.74;100867.13;5074301;28;20056;-60
2022/09/13 05:10:31;;;;;;;13.88;7.93;;;;;;;18.63;89.71;100864.34;5072081;28;20506;-58
2022/09/13 05:13:00;;;;;;;11.25;8.35;;;;;;;18.63;89.65;100872.63;5074834;28;20089;-57
2022/09/13 05:15:27;;;;;;;13.38;7.85;;;;;;;18.63;89.80;100869.88;5074998;28;20048;-59
2022/09/13 05:17:55;;;;;;;13.93;8.40;;;;;;;18.63;90.10;100869.88;5062515;28;20516;-59
2022/09/13 05:20:23;;;;;;;11.40;8.13;;;;;;;18.63;89.81;100869.06;5071024;28;20050;-58
2022/09/13 05:22:50;;;;;;;9.70;7.25;;;;;;;18.62;89.71;100873.78;5072550;28;20101;-59
2022/09/13 05:25:18;;;;;;;10.68;6.63;;;;;;;18.64;89.81;100871.50;5074678;28;20056;-59
2022/09/13 05:27:52;;;;;;;11.90;7.20;;;;;;;18.64;89.85;100866.00;5075648;28;20093;-58
2022/09/13 05:30:19;;;;;;;10.20;6.70;;;;;;;18.66;89.90;100869.22;5064091;28;20037;-60
2022/09/13 05:32:47;;;;;;;13.20;7.28;;;;;;;18.68;89.63;100868.91;5067338;28;20459;-60
2022/09/13 05:35:15;;;;;;;15.32;7.82;;;;;;;18.67;89.93;100870.88;5062813;28;20037;-57
2022/09/13 05:37:43;;;;;;;9.65;6.57;;;;;;;18.69;89.63;100868.59;5074517;28;20040;-60
2022/09/13 05:40:11;;;;;;;10.13;6.85;;;;;;;18.68;89.69;100866.97;5075086;28;20036;-59
2022/09/13 05:42:39;;;;;;;11.98;8.13;;;;;;;18.68;89.81;100878.00;5069851;28;20041;-59
2022/09/13 05:45:08;;;;;;;13.05;7.15;;;;;;;18.68;89.75;100878.00;5059250;28;20040;-58
2022/09/13 05:47:35;;;;;;;10.30;7.30;;;;;;;18.68;90.06;100880.75;5074100;28;20086;-55
2022/09/13 05:50:04;;;;;;;12.30;7.65;;;;;;;18.66;90.26;100873.94;5072849;28;20051;-56
2022/09/13 05:52:54;;;;;;;12.52;7.53;;;;;;;18.66;90.07;100874.75;5066664;28;20044;-56
2022/09/13 05:55:23;;;;;;;12.30;7.97;;;;;;;18.67;90.21;100887.44;5067100;28;20426;-57
2022/09/13 05:57:50;;;;;;;10.10;7.05;;;;;;;18.68;89.83;100878.00;5060181;28;20110;-55
2022/09/13 06:00:18;;;;;;;10.93;6.90;;;;;;;18.70;89.80;100875.72;4709900;28;10000083;-57
2022/09/13 06:02:46;;;;;;;13.43;8.35;;;;;;;18.70;89.82;100875.72;5054853;28;20037;-58
2022/09/13 06:05:13;;;;;;;16.98;8.48;;;;;;;18.69;89.99;100874.13;5068987;28;20102;-55
2022/09/13 06:07:42;;;;;;;19.92;7.93;;;;;;;18.70;89.91;100872.16;5052694;28;20049;-58
2022/09/13 06:10:10;;;;;;;14.30;8.52;;;;;;;18.70;90.32;100875.72;5070568;28;20089;-58
2022/09/13 06:12:38;;;;;;;12.40;7.90;;;;;;;18.69;90.26;100876.88;5067353;28;20432;-54
2022/09/13 06:15:07;;;;;;;12.95;9.73;;;;;;;18.67;90.49;100876.38;5069866;28;20044;-58
2022/09/13 06:17:35;;;;;;;11.52;7.80;;;;;;;18.70;90.02;100872.97;5070670;28;20491;-55
2022/09/13 06:20:03;;;;;;;10.40;6.90;;;;;;;18.71;89.96;100880.13;5050537;28;20380;-58
2022/09/13 06:22:34;;;;;;;14.43;8.38;;;;;;;18.73;89.85;100877.84;5070170;28;20235;-54
2022/09/13 06:25:01;;;;;;;17.40;9.45;;;;;;;18.72;90.13;100876.22;5067382;28;20048;-56
2022/09/13 06:27:30;;;;;;;17.45;8.98;;;;;;;18.72;90.22;100879.00;5069065;28;20040;-59
2022/09/13 06:29:58;;;;;;;14.23;9.00;;;;;;;18.71;90.23;100882.91;5069229;28;20507;-57
2022/09/13 06:32:25;;;;;;;16.73;9.60;;;;;;;18.71;90.33;100893.94;5065879;28;20049;-55
2022/09/13 06:34:53;;;;;;;20.45;10.90;;;;;;;18.70;90.26;100881.25;5053649;28;20041;-55
2022/09/13 06:37:21;;;;;;;15.52;10.25;;;;;;;18.69;90.27;100882.41;5059979;28;20071;-55
2022/09/13 06:39:48;;;;;;;18.20;10.90;;;;;;;18.70;90.33;100874.94;5069469;28;20048;-56
2022/09/13 06:42:17;;;;;;;14.98;10.20;;;;;;;18.71;90.50;100874.63;5070068;28;20101;-55
2022/09/13 06:44:47;;;;;;;16.75;10.32;;;;;;;18.70;90.71;100884.00;5065849;28;20105;-55
2022/09/13 06:47:15;;;;;;;15.75;9.90;;;;;;;18.69;90.73;100876.06;5070003;28;20044;-57
2022/09/13 06:49:43;;;;;;;15.68;10.32;;;;;;;18.69;90.69;100871.34;5068368;28;20106;-56
2022/09/13 06:52:10;;;;;;;14.63;10.27;;;;;;;18.71;90.89;100868.25;5068490;28;20097;-53
2022/09/13 06:54:38;;;;;;;17.85;10.43;;;;;;;18.69;91.26;100862.28;5058071;28;20048;-54
2022/09/13 06:57:06;;;;;;;16.83;11.45;;;;;;;18.70;91.16;100863.88;5067663;28;20045;-59
2022/09/13 06:59:33;;;;;;;14.88;11.57;;;;;;;18.70;91.27;100864.69;5057889;28;20086;-55
2022/09/13 07:02:01;;;;;;;18.02;11.35;;;;;;;18.72;91.25;100856.91;5071966;28;20504;-58
2022/09/13 07:04:32;;;;;;;17.55;11.25;;;;;;;18.74;91.37;100864.88;5072971;28;20049;-58
2022/09/13 07:07:00;;;;;;;17.38;12.45;;;;;;;18.76;91.34;100872.81;5071620;28;20047;-57
2022/09/13 07:09:27;;;;;;;19.98;12.82;;;;;;;18.80;91.69;100873.84;5069488;28;20044;-58
2022/09/13 07:11:55;;;;;;;15.85;11.75;;;;;;;18.82;91.87;100874.34;5071361;28;20094;-56
2022/09/13 07:14:26;;;;;;;19.40;12.55;;;;;;;18.84;91.87;100872.06;5071507;28;20041;-57
2022/09/13 07:16:54;;;;;;;22.27;13.60;;;;;;;18.86;91.80;100878.09;5071201;28;20063;-59
2022/09/13 07:19:25;;;;;;;23.10;13.10;;;;;;;18.86;92.35;100881.66;5048731;28;20047;-59
2022/09/13 07:21:54;;;;;;;20.92;13.25;;;;;;;18.87;92.64;100879.69;5060206;28;20564;-59
2022/09/13 07:24:22;;;;;;;20.13;14.20;;;;;;;18.88;92.92;100886.81;5064746;28;20041;-58
2022/09/13 07:26:50;;;;;;;20.95;13.52;;;;;;;18.89;92.71;100886.53;5071756;28;20380;-57
2022/09/13 07:29:21;;;;;;;22.23;14.68;;;;;;;18.91;93.37;100880.69;5069578;28;20388;-56
2022/09/13 07:31:53;;;;;;;18.40;14.60;;;;;;;18.92;93.57;100874.00;5063072;28;20049;-59
2022/09/13 07:34:23;;;;;;;27.77;16.15;;;;;;;18.93;94.45;100889.47;5066018;28;20044;-57
2022/09/13 07:36:51;;;;;;;23.45;17.27;;;;;;;18.94;94.38;100896.59;5055326;28;20040;-56
2022/09/13 07:39:19;;;;;;;29.38;16.35;;;;;;;18.94;94.15;100891.88;5071395;28;20406;-57
2022/09/13 07:41:50;;;;;;;21.55;16.65;;;;;;;18.98;95.00;100896.75;5054567;28;20070;-57
2022/09/13 07:44:18;;;;;;;25.27;17.52;;;;;;;18.99;95.52;100899.19;5065640;28;20063;-60
2022/09/13 07:46:46;;;;;;;24.15;16.95;;;;;;;19.01;95.84;100896.94;5073876;28;20522;-54
2022/09/13 07:49:15;;;;;;;29.60;18.92;;;;;;;19.04;96.36;100896.28;5058993;28;20049;-55
2022/09/13 07:51:44;;;;;;;28.35;19.00;;;;;;;19.07;97.06;100905.88;5068843;28;20063;-57
2022/09/13 07:54:15;;;;;;;31.13;19.77;;;;;;;19.10;97.16;100906.03;5070214;28;20040;-55
2022/09/13 07:56:44;;;;;;;29.15;20.85;;;;;;;19.15;97.03;100908.66;5073700;28;20042;-57
2022/09/13 07:59:14;;;;;;;24.35;19.08;;;;;;;19.19;97.49;100902.47;5074328;28;20071;-60
2022/09/13 08:01:47;;;;;;;28.70;20.33;;;;;;;19.23;97.27;100911.72;5068814;28;20045;-55
2022/09/13 08:04:20;;;;;;;28.42;19.33;;;;;;;19.27;97.27;100912.72;5062081;28;20045;-58
2022/09/13 08:06:48;;;;;;;32.20;19.52;;;;;;;19.32;97.71;100912.56;5070024;28;20040;-56
2022/09/13 08:09:16;;;;;;;31.80;21.15;;;;;;;19.37;97.68;100912.38;5062445;28;20466;-55
2022/09/13 08:11:47;;;;;;;30.60;20.27;;;;;;;19.42;97.80;100906.69;5059258;28;20045;-59
2022/09/13 08:14:16;;;;;;;29.83;22.40;;;;;;;19.47;99.08;100911.25;5060260;28;20041;-59
2022/09/13 08:16:45;;;;;;;28.35;21.58;;;;;;;19.49;98.32;100907.00;5064749;28;20402;-58
2022/09/13 08:19:14;;;;;;;31.75;21.45;;;;;;;19.51;97.82;100910.28;5070073;28;20029;-59
2022/09/13 08:21:43;;;;;;;30.45;22.70;;;;;;;19.53;97.97;100902.47;5061933;28;20499;-57
2022/09/13 08:24:14;;;;;;;27.70;18.50;;;;;;;19.58;97.75;100910.59;5065145;28;20453;-58
2022/09/13 08:26:42;;;;;;;29.33;20.83;;;;;;;19.63;98.63;100914.34;5061405;28;20048;-60
2022/09/13 08:29:11;;;;;;;30.02;20.85;;;;;;;19.68;98.50;100911.44;5063637;28;20041;-59
2022/09/13 08:31:39;;;;;;;27.35;20.77;;;;;;;19.71;97.61;100913.53;5070397;28;20521;-58
2022/09/13 08:34:10;;;;;;;29.23;19.35;;;;;;;19.71;97.71;100902.47;5060445;28;20052;-58
2022/09/13 08:36:40;;;;;;;27.10;20.52;;;;;;;19.73;98.04;100914.03;5066849;28;20154;-57
2022/09/13 08:39:09;;;;;;;27.83;20.90;;;;;;;19.75;97.64;100917.28;5068331;28;20506;-58
2022/09/13 08:41:46;;;;;;;26.20;19.70;;;;;;;19.79;98.07;100918.22;5060380;28;20441;-60
2022/09/13 08:44:25;;;;;;;29.58;17.55;;;;;;;19.82;97.48;100920.34;5059153;28;20033;-58
2022/09/13 08:47:21;;;;;;;23.15;14.68;;;;;;;19.85;97.26;100921.66;5063542;28;20050;-59
2022/09/13 08:49:56;;;;;;;;;;;;;;;19.89;98.22;100919.81;5064747;28;20052;-57
2022/09/13 08:52:31;;;;;;;22.33;15.13;;;;;;;19.89;97.60;100923.44;5065992;28;20386;-57
2022/09/13 08:55:02;;;;;;;25.92;19.08;;;;;;;19.94;98.65;100933.47;5089469;28;20052;-59
2022/09/13 08:57:59;;;;;;;24.13;17.92;;;;;;;19.95;98.61;100924.88;5072016;28;20037;-58
2022/09/13 09:00:37;;;;;;;25.92;18.20;;;;;;;19.96;98.95;100934.81;5071760;28;20079;-59
2022/09/13 09:03:28;;;;;;;24.15;17.88;;;;;;;19.98;98.52;100929.72;5073938;28;20494;-59
2022/09/13 09:05:56;;;;;;;27.83;19.00;;;;;;;19.99;99.46;100925.84;5072557;28;20036;-58
2022/09/13 09:08:27;;;;;;;24.05;17.98;;;;;;;20.01;99.86;100925.50;5062475;28;20053;-58
2022/09/13 09:10:56;;;;;;;28.92;18.95;;;;;;;20.04;99.21;100924.03;5065221;28;20110;-60
2022/09/13 09:13:34;;;;;;;24.35;17.88;;;;;;;20.08;99.08;100916.69;5066346;28;20032;-59
2022/09/13 09:16:16;;;;;;;24.75;17.80;;;;;;;20.10;98.96;100919.94;5072623;28;20086;-58
2022/09/13 09:18:47;;;;;;;22.08;15.77;;;;;;;20.13;99.23;100919.28;5074561;28;20552;-58
2022/09/13 09:21:17;;;;;;;24.70;16.20;;;;;;;20.16;99.69;100913.09;5074847;28;20070;-61
2022/09/13 09:23:51;;;;;;;22.58;16.60;;;;;;;20.21;99.24;100915.69;5069240;28;20490;-62
2022/09/13 09:26:25;;;;;;;24.00;17.20;;;;;;;20.26;99.03;100912.72;5066702;28;20050;-59
2022/09/13 09:29:09;;;;;;;23.77;15.80;;;;;;;20.28;98.80;100909.66;5074741;28;20149;-60
2022/09/13 09:31:43;;;;;;;20.35;15.10;;;;;;;20.30;98.73;100905.41;5053614;28;20491;-59
2022/09/13 09:34:44;;;;;;;20.08;14.40;;;;;;;20.36;99.34;100898.53;5049179;28;20063;-58
2022/09/13 09:37:24;;;;;;;21.02;14.52;;;;;;;20.40;98.44;100902.25;5071554;28;20090;-59
2022/09/13 09:39:54;;;;;;;21.88;15.82;;;;;;;20.45;98.82;100908.75;5053786;28;20045;-61
2022/09/13 09:42:25;;;;;;;18.58;14.50;;;;;;;20.52;98.69;100904.31;5071381;28;20040;-60
2022/09/13 09:45:17;;;;;;;21.45;13.40;;;;;;;20.56;97.54;100904.47;5046582;28;20068;-59
2022/09/13 09:47:47;;;;;;;25.20;13.20;;;;;;;20.58;97.51;100913.25;5071350;28;20033;-55
2022/09/13 09:50:21;;;;;;;22.05;13.90;;;;;;;20.58;97.90;100908.53;5061454;28;20045;-58
2022/09/13 09:52:58;;;;;;;18.30;12.05;;;;;;;20.64;98.09;100907.22;5046022;28;20049;-57
2022/09/13 09:55:34;;;;;;;16.83;10.07;;;;;;;20.67;97.46;100899.38;5062778;28;20045;-59
2022/09/13 09:58:08;;;;;;;17.65;10.68;;;;;;;20.74;97.77;100922.63;5074055;28;20048;-57
2022/09/13 10:00:49;;;;;;;14.40;9.40;;;;;;;20.71;96.66;100912.22;5065591;28;20557;-56
2022/09/13 10:03:20;;;;;;;15.70;9.65;;;;;;;20.70;96.07;100910.59;5073408;28;20048;-57
2022/09/13 10:05:48;;;;;;;14.23;10.23;;;;;;;20.70;96.36;100910.59;5070025;28;20048;-58
2022/09/13 10:08:42;;;;;;;16.45;10.30;;;;;;;20.67;96.89;100904.94;5073994;28;20101;-60
2022/09/13 10:11:11;;;;;;;14.85;9.85;;;;;;;20.67;97.82;100911.28;5063123;28;20056;-57
2022/09/13 10:13:39;;;;;;;15.93;9.10;;;;;;;20.71;96.79;100903.91;5067191;28;20040;-60
2022/09/13 10:16:28;;;;;;;13.05;7.43;;;;;;;20.73;96.65;100898.84;5072659;28;20057;-60
2022/09/13 10:19:24;;;;;;;15.50;7.28;;;;;;;20.80;95.52;100893.59;5073110;28;20051;-56
2022/09/13 10:22:10;;;;;;;15.00;7.35;;;;;;;20.83;95.19;100895.69;5067592;28;20432;-57
2022/09/13 10:24:38;;;;;;;13.20;8.02;;;;;;;20.84;95.18;100891.78;5073303;28;20086;-56
2022/09/13 10:27:19;;;;;;;14.60;7.88;;;;;;;20.89;95.23;100887.19;5072051;28;20039;-59
2022/09/13 10:29:49;;;;;;;14.68;8.25;;;;;;;20.92;95.33;100878.19;5055935;28;20032;-60
2022/09/13 10:32:18;;;;;;;13.93;8.35;;;;;;;20.93;95.58;100886.19;5048312;28;20037;-60
2022/09/13 10:34:48;;;;;;;13.73;8.70;;;;;;;20.97;95.48;100886.31;5066851;28;20113;-60
2022/09/13 10:37:21;;;;;;;12.88;7.97;;;;;;;20.98;94.88;100876.88;5072573;28;20045;-56
2022/09/13 10:40:17;;;;;;;11.50;7.30;;;;;;;21.01;95.38;100874.22;5072222;28;20040;-58
2022/09/13 10:42:56;;;;;;;12.80;6.88;;;;;;;21.07;94.08;100883.16;5069858;28;20064;-61
2022/09/13 10:45:30;;;;;;;10.43;6.22;;;;;;;21.11;93.33;100880.50;5051777;28;20043;-59
2022/09/13 10:48:13;;;;;;;10.95;6.45;;;;;;;21.08;93.30;100882.00;5065848;28;20115;-59
2022/09/13 10:50:40;;;;;;;9.75;5.70;;;;;;;21.04;93.52;100873.53;5067683;28;20040;-61
2022/09/13 10:53:38;;;;;;;9.77;6.00;;;;;;;21.01;91.85;100868.69;5047228;28;20043;-60
2022/09/13 10:56:22;;;;;;;12.00;6.00;;;;;;;21.05;91.14;100877.13;4363878;28;10000565;-61
2022/09/13 10:58:49;;;;;;;12.10;6.72;;;;;;;21.07;91.13;100874.84;5069329;28;20094;-61
2022/09/13 11:01:40;;;;;;;11.93;7.18;;;;;;;21.08;91.92;100882.00;5064406;28;20059;-57
2022/09/13 11:04:33;;;;;;;11.05;6.90;;;;;;;21.09;92.26;100877.25;5065959;28;20542;-60
2022/09/13 11:07:10;;;;;;;11.90;7.57;;;;;;;21.07;92.42;100872.06;5054828;28;20048;-56
2022/09/13 11:09:43;;;;;;;9.70;6.28;;;;;;;21.08;92.93;100868.16;5068138;28;20044;-57
2022/09/13 11:12:27;;;;;;;11.50;7.35;;;;;;;21.09;93.22;100869.75;5048991;28;20406;-59
2022/09/13 11:15:14;;;;;;;11.68;6.90;;;;;;;21.12;92.85;100871.88;5055390;28;20040;-58
2022/09/13 11:17:54;;;;;;;11.68;6.15;;;;;;;21.13;92.57;100869.91;5068759;28;20040;-60
2022/09/13 11:20:31;;;;;;;15.00;9.15;;;;;;;21.15;92.94;100862.06;5069806;28;20093;-60
2022/09/13 11:23:04;;;;;;;12.30;7.32;;;;;;;21.17;93.08;100855.03;5059496;28;20094;-58
2022/09/13 11:25:50;;;;;;;15.85;8.50;;;;;;;21.21;92.39;100857.91;5062510;28;20044;-60
2022/09/13 11:28:47;;;;;;;15.07;8.60;;;;;;;21.24;92.00;100846.97;5067878;28;20046;-57
2022/09/13 11:31:33;;;;;;;13.45;7.90;;;;;;;21.26;92.27;100841.91;5061884;28;20040;-62
2022/09/13 11:34:01;;;;;;;14.00;8.38;;;;;;;21.30;93.08;100855.09;5066277;28;20045;-57
2022/09/13 11:36:46;;;;;;;15.90;8.88;;;;;;;21.31;93.90;100851.97;5070972;28;20094;-59
2022/09/13 11:39:19;;;;;;;14.32;8.20;;;;;;;21.32;94.24;100852.78;5066237;28;20440;-57
2022/09/13 11:42:18;;;;;;;14.38;7.80;;;;;;;21.32;93.52;100848.06;5073215;28;20041;-57
2022/09/13 11:45:18;;;;;;;14.45;8.10;;;;;;;21.33;93.62;100843.31;5058421;28;20048;-59
2022/09/13 11:48:30;;;;;;;12.40;8.13;;;;;;;21.32;93.68;100844.47;5070962;28;20053;-60